Time;durP1;ratioP1;P1;durP2;ratioP2;P2;SDS_P1;SDS_P2;PMS_P1;PMS_P2;Temp;Humidity;BMP_temperature;BMP_pressure;BME280_temperature;BME280_humidity;BME280_pressure;Samples;Min_cycle;Max_cycle;Signal;HPM_P1;HPM_P2
2022/11/23 00:02:20;;;;;;;57.77;25.87;;;;;;;;;;6198692;28;20082;-75
2022/11/23 00:05:21;;;;;;;49.92;24.55;;;;;;;;;;6198166;28;20073;-73
2022/11/23 00:08:21;;;;;;;54.53;25.90;;;;;;;;;;6198049;28;20046;-73
2022/11/23 00:11:22;;;;;;;46.88;23.73;;;;;;;;;;6197326;28;20022;-74
2022/11/23 00:14:22;;;;;;;48.67;25.30;;;;;;;;;;6198017;28;20022;-73
2022/11/23 00:17:22;;;;;;;53.47;24.85;;;;;;;;;;6198228;28;20042;-74
2022/11/23 00:20:22;;;;;;;48.80;22.00;;;;;;;;;;6197723;28;21274;-75
2022/11/23 00:23:22;;;;;;;52.27;23.97;;;;;;;;;;6195455;28;20034;-74
2022/11/23 00:26:22;;;;;;;43.10;21.58;;;;;;;;;;6197994;28;20033;-74
2022/11/23 00:29:23;;;;;;;52.20;23.13;;;;;;;;;;6195871;28;20085;-75
2022/11/23 00:32:23;;;;;;;34.57;18.23;;;;;;;;;;6197357;28;20011;-74
2022/11/23 00:35:23;;;;;;;56.87;27.17;;;;;;;;;;6179477;28;20028;-75
2022/11/23 00:38:23;;;;;;;56.47;23.73;;;;;;;;;;6198167;28;20149;-75
2022/11/23 00:41:25;;;;;;;38.95;19.80;;;;;;;;;;6179754;28;20068;-74
2022/11/23 00:44:25;;;;;;;52.22;24.58;;;;;;;;;;6196375;28;20019;-74
2022/11/23 00:47:25;;;;;;;52.57;24.30;;;;;;;;;;6197252;28;20452;-74
2022/11/23 00:50:25;;;;;;;47.33;21.83;;;;;;;;;;6195948;28;20029;-74
2022/11/23 00:53:26;;;;;;;50.07;25.20;;;;;;;;;;6196942;28;20022;-74
2022/11/23 00:56:26;;;;;;;52.43;23.90;;;;;;;;;;6179328;28;20022;-74
2022/11/23 00:59:28;;;;;;;48.30;25.20;;;;;;;;;;6197047;28;20026;-74
2022/11/23 01:02:28;;;;;;;57.10;24.83;;;;;;;;;;6195601;28;20053;-74
2022/11/23 01:05:28;;;;;;;54.50;26.92;;;;;;;;;;6196472;28;20478;-74
2022/11/23 01:08:28;;;;;;;53.37;25.30;;;;;;;;;;6196446;28;20026;-74
2022/11/23 01:11:29;;;;;;;59.37;26.70;;;;;;;;;;6195804;28;20082;-74
2022/11/23 01:14:29;;;;;;;47.70;24.13;;;;;;;;;;6179136;28;20019;-74
2022/11/23 01:17:29;;;;;;;53.63;24.63;;;;;;;;;;6178569;28;20061;-74
2022/11/23 01:20:30;;;;;;;54.05;25.17;;;;;;;;;;6195362;28;20018;-73
2022/11/23 01:23:30;;;;;;;55.07;26.03;;;;;;;;;;6195865;28;20453;-73
2022/11/23 01:26:30;;;;;;;55.77;23.97;;;;;;;;;;6178760;28;20025;-74
2022/11/23 01:29:31;;;;;;;54.77;25.23;;;;;;;;;;6194440;28;20101;-73
2022/11/23 01:32:31;;;;;;;49.20;23.97;;;;;;;;;;6195722;28;20014;-74
2022/11/23 01:35:31;;;;;;;60.63;24.42;;;;;;;;;;6195548;28;20014;-73
2022/11/23 01:38:31;;;;;;;56.50;25.00;;;;;;;;;;6195592;28;20022;-74
2022/11/23 01:41:36;;;;;;;65.93;27.17;;;;;;;;;;6195720;28;20022;-73
2022/11/23 01:44:38;;;;;;;62.30;27.98;;;;;;;;;;6195724;28;20027;-73
2022/11/23 01:47:38;;;;;;;;;;;;;;;;;;6193906;28;20106;-73
2022/11/23 01:50:39;;;;;;;59.00;26.37;;;;;;;;;;6195427;28;19914;-74
2022/11/23 01:53:41;;;;;;;57.53;25.57;;;;;;;;;;6194520;28;20268;-74
2022/11/23 01:56:42;;;;;;;51.75;23.95;;;;;;;;;;6195355;28;20027;-73
2022/11/23 01:59:43;;;;;;;53.63;24.38;;;;;;;;;;6178486;28;20034;-73
2022/11/23 02:02:46;;;;;;;51.73;24.10;;;;;;;;;;6194658;28;20022;-74
2022/11/23 02:05:48;;;;;;;56.65;26.50;;;;;;;;;;6193651;28;20293;-74
2022/11/23 02:08:48;;;;;;;53.45;26.75;;;;;;;;;;6194656;28;20113;-72
2022/11/23 02:11:48;;;;;;;59.77;25.07;;;;;;;;;;6194937;28;20022;-72
2022/11/23 02:14:48;;;;;;;55.05;25.38;;;;;;;;;;6195333;28;20025;-72
2022/11/23 02:17:49;;;;;;;54.73;26.77;;;;;;;;;;6177870;28;20594;-72
2022/11/23 02:20:50;;;;;;;54.47;27.33;;;;;;;;;;6195734;28;20022;-72
2022/11/23 02:24:01;;;;;;;54.27;23.57;;;;;;;;;;6193935;28;20027;-72
2022/11/23 02:27:03;;;;;;;66.50;26.10;;;;;;;;;;6194711;28;20029;-72
2022/11/23 02:30:03;;;;;;;50.30;23.80;;;;;;;;;;6196363;28;20133;-73
2022/11/23 02:33:04;;;;;;;54.47;22.70;;;;;;;;;;6195337;28;20018;-72
2022/11/23 02:36:40;;;;;;;50.92;22.42;;;;;;;;;;6194706;28;20010;-72
2022/11/23 02:39:43;;;;;;;58.25;23.70;;;;;;;;;;6120076;28;20027;-72
2022/11/23 02:42:44;;;;;;;55.28;25.20;;;;;;;;;;6189652;28;20026;-73
2022/11/23 02:45:48;;;;;;;58.17;28.27;;;;;;;;;;6194926;28;20019;-74
2022/11/23 02:48:48;;;;;;;54.25;25.05;;;;;;;;;;6196072;28;20037;-72
2022/11/23 02:51:49;;;;;;;58.60;26.40;;;;;;;;;;6176907;28;20023;-72
2022/11/23 02:54:49;;;;;;;62.87;27.77;;;;;;;;;;6194394;28;20093;-72
2022/11/23 02:57:49;;;;;;;56.27;24.03;;;;;;;;;;6193820;28;20025;-72
2022/11/23 03:00:49;;;;;;;62.00;26.97;;;;;;;;;;6193672;28;20221;-72
2022/11/23 03:03:49;;;;;;;56.97;27.50;;;;;;;;;;6194796;28;20022;-72
2022/11/23 03:06:49;;;;;;;61.60;28.00;;;;;;;;;;6192876;28;20407;-72
2022/11/23 03:09:50;;;;;;;64.73;27.97;;;;;;;;;;6177444;28;20505;-73
2022/11/23 03:12:52;;;;;;;60.70;24.57;;;;;;;;;;6196529;28;20018;-72
2022/11/23 03:15:55;;;;;;;65.75;29.40;;;;;;;;;;6180210;28;20024;-72
2022/11/23 03:18:56;;;;;;;59.50;28.10;;;;;;;;;;6199393;28;20026;-72
2022/11/23 03:21:56;;;;;;;48.20;25.80;;;;;;;;;;6197992;28;20085;-72
2022/11/23 03:24:56;;;;;;;59.30;27.15;;;;;;;;;;6199350;28;20018;-72
2022/11/23 03:27:56;;;;;;;54.83;26.07;;;;;;;;;;6198774;28;20026;-73
2022/11/23 03:30:56;;;;;;;55.23;24.10;;;;;;;;;;6198456;28;20097;-71
2022/11/23 03:33:57;;;;;;;57.87;27.10;;;;;;;;;;6198988;28;20034;-72
2022/11/23 03:36:57;;;;;;;61.55;24.48;;;;;;;;;;6197382;28;20020;-72
2022/11/23 03:39:57;;;;;;;56.30;27.08;;;;;;;;;;6181670;28;20065;-72
2022/11/23 03:42:57;;;;;;;59.15;27.60;;;;;;;;;;6198159;28;20030;-72
2022/11/23 03:45:57;;;;;;;57.35;26.05;;;;;;;;;;6197259;28;20030;-72
2022/11/23 03:48:57;;;;;;;55.47;25.20;;;;;;;;;;6198204;28;20029;-72
2022/11/23 03:51:58;;;;;;;56.78;28.25;;;;;;;;;;6197878;28;20395;-73
2022/11/23 03:54:58;;;;;;;61.37;27.73;;;;;;;;;;6197716;28;20045;-72
2022/11/23 03:57:58;;;;;;;60.73;27.77;;;;;;;;;;6197865;28;20015;-73
2022/11/23 04:00:58;;;;;;;55.00;25.13;;;;;;;;;;6178337;28;20022;-73
2022/11/23 04:03:59;;;;;;;56.40;26.35;;;;;;;;;;6195188;28;20022;-73
2022/11/23 04:06:59;;;;;;;50.13;24.20;;;;;;;;;;6196200;28;20047;-73
2022/11/23 04:09:59;;;;;;;59.17;26.73;;;;;;;;;;6180571;28;20121;-73
2022/11/23 04:12:59;;;;;;;49.28;23.10;;;;;;;;;;6198257;28;20021;-73
2022/11/23 04:15:59;;;;;;;59.07;27.70;;;;;;;;;;6196934;28;20050;-72
2022/11/23 04:19:00;;;;;;;49.43;24.30;;;;;;;;;;6198152;28;20379;-73
2022/11/23 04:22:00;;;;;;;53.38;24.55;;;;;;;;;;6197567;28;20514;-73
2022/11/23 04:25:00;;;;;;;54.93;25.93;;;;;;;;;;6197287;28;20097;-73
2022/11/23 04:28:00;;;;;;;45.70;24.23;;;;;;;;;;6197632;28;20055;-73
2022/11/23 04:31:01;;;;;;;56.97;28.17;;;;;;;;;;6196892;28;20054;-73
2022/11/23 04:34:01;;;;;;;42.10;19.90;;;;;;;;;;6197005;28;20117;-73
2022/11/23 04:37:01;;;;;;;53.67;23.33;;;;;;;;;;6197232;28;20023;-73
2022/11/23 04:40:01;;;;;;;52.27;23.03;;;;;;;;;;6195632;28;20072;-73
2022/11/23 04:43:02;;;;;;;53.53;25.80;;;;;;;;;;6179803;28;20077;-73
2022/11/23 04:46:02;;;;;;;56.70;26.47;;;;;;;;;;6179551;28;20030;-73
2022/11/23 04:49:02;;;;;;;54.07;26.03;;;;;;;;;;6195785;28;20545;-73
2022/11/23 04:52:02;;;;;;;52.67;25.07;;;;;;;;;;6195106;28;20045;-73
2022/11/23 04:55:03;;;;;;;54.57;26.50;;;;;;;;;;6195138;28;20106;-73
2022/11/23 04:58:03;;;;;;;49.27;23.50;;;;;;;;;;6196908;28;20057;-73
2022/11/23 05:01:04;;;;;;;60.67;26.03;;;;;;;;;;6196795;28;20025;-73
2022/11/23 05:04:04;;;;;;;61.03;24.77;;;;;;;;;;6196333;28;20026;-73
2022/11/23 05:07:05;;;;;;;56.47;27.23;;;;;;;;;;6195919;28;20414;-73
2022/11/23 05:10:05;;;;;;;54.77;24.63;;;;;;;;;;6196763;28;20473;-73
2022/11/23 05:13:05;;;;;;;52.37;26.93;;;;;;;;;;6196158;28;20029;-73
2022/11/23 05:16:06;;;;;;;66.25;29.65;;;;;;;;;;6195155;28;20121;-73
2022/11/23 05:19:06;;;;;;;53.43;25.00;;;;;;;;;;6195981;28;20019;-73
2022/11/23 05:22:06;;;;;;;53.10;25.97;;;;;;;;;;6195220;28;20018;-73
2022/11/23 05:25:07;;;;;;;56.97;26.60;;;;;;;;;;6195341;28;20105;-73
2022/11/23 05:28:13;;;;;;;58.73;24.80;;;;;;;;;;6197495;28;20018;-73
2022/11/23 05:31:13;;;;;;;56.55;25.92;;;;;;;;;;6182602;28;20022;-73
2022/11/23 05:34:13;;;;;;;55.03;23.77;;;;;;;;;;6196103;28;20426;-73
2022/11/23 05:37:13;;;;;;;53.10;26.13;;;;;;;;;;6195630;28;20023;-73
2022/11/23 05:40:14;;;;;;;57.28;25.80;;;;;;;;;;6196651;28;20022;-73
2022/11/23 05:43:14;;;;;;;76.13;32.23;;;;;;;;;;6177064;28;20482;-74
2022/11/23 05:46:15;;;;;;;65.38;31.42;;;;;;;;;;6178310;28;20041;-73
2022/11/23 05:49:15;;;;;;;61.13;28.00;;;;;;;;;;6196472;28;20482;-74
2022/11/23 05:52:15;;;;;;;62.67;25.50;;;;;;;;;;6195297;28;20010;-74
2022/11/23 05:55:16;;;;;;;61.33;27.40;;;;;;;;;;6177537;28;20018;-74
2022/11/23 05:58:16;;;;;;;57.77;27.90;;;;;;;;;;6178409;28;20025;-74
2022/11/23 06:01:16;;;;;;;53.13;26.57;;;;;;;;;;6195267;28;20122;-73
2022/11/23 06:04:16;;;;;;;65.93;30.83;;;;;;;;;;6194855;28;20019;-73
2022/11/23 06:07:17;;;;;;;106.57;49.30;;;;;;;;;;6167313;28;20046;-73
2022/11/23 06:10:17;;;;;;;105.57;48.00;;;;;;;;;;6166968;28;20030;-73
2022/11/23 06:13:17;;;;;;;101.55;49.15;;;;;;;;;;6171455;28;20086;-73
2022/11/23 06:16:17;;;;;;;85.22;40.20;;;;;;;;;;6169256;28;20034;-74
2022/11/23 06:19:17;;;;;;;63.53;31.40;;;;;;;;;;6168409;28;20422;-75
2022/11/23 06:22:17;;;;;;;70.80;32.93;;;;;;;;;;6168617;28;20019;-74
2022/11/23 06:25:18;;;;;;;61.45;29.60;;;;;;;;;;6171126;28;20034;-74
2022/11/23 06:28:18;;;;;;;52.33;22.45;;;;;;;;;;6171316;28;20102;-74
2022/11/23 06:31:18;;;;;;;69.05;32.22;;;;;;;;;;6171041;28;20043;-74
2022/11/23 06:34:18;;;;;;;60.90;29.13;;;;;;;;;;6168358;28;20073;-74
2022/11/23 06:37:18;;;;;;;63.47;31.08;;;;;;;;;;6171629;28;20022;-75
2022/11/23 06:40:19;;;;;;;73.53;33.63;;;;;;;;;;6171575;28;20031;-74
2022/11/23 06:43:19;;;;;;;69.97;30.90;;;;;;;;;;6170660;28;20070;-73
2022/11/23 06:46:19;;;;;;;76.87;36.17;;;;;;;;;;6168046;28;20477;-74
2022/11/23 06:49:20;;;;;;;65.00;33.47;;;;;;;;;;6174980;28;20031;-74
2022/11/23 06:52:20;;;;;;;73.33;34.90;;;;;;;;;;6174087;28;20042;-73
2022/11/23 06:55:21;;;;;;;63.10;31.92;;;;;;;;;;6174931;28;20019;-74
2022/11/23 06:58:21;;;;;;;53.40;29.43;;;;;;;;;;6175812;28;20489;-73
2022/11/23 07:01:21;;;;;;;48.73;25.80;;;;;;;;;;6174228;28;20027;-74
2022/11/23 07:04:21;;;;;;;56.53;26.87;;;;;;;;;;6174263;28;20070;-74
2022/11/23 07:07:22;;;;;;;45.93;24.60;;;;;;;;;;6190927;28;20077;-74
2022/11/23 07:10:22;;;;;;;48.87;28.70;;;;;;;;;;6199504;28;20026;-74
2022/11/23 07:13:22;;;;;;;51.43;26.57;;;;;;;;;;6199996;28;20028;-74
2022/11/23 07:16:22;;;;;;;57.83;27.30;;;;;;;;;;6197232;28;20019;-74
2022/11/23 07:19:23;;;;;;;59.67;27.07;;;;;;;;;;6199454;28;20038;-74
2022/11/23 07:22:23;;;;;;;64.38;30.48;;;;;;;;;;6198042;28;20018;-74
2022/11/23 07:25:23;;;;;;;46.17;24.83;;;;;;;;;;6199500;28;20022;-73
2022/11/23 07:32:01;;;;;;;49.80;26.80;;;;;;;;;;6186070;28;20038;-74
2022/11/23 07:35:01;;;;;;;61.73;29.27;;;;;;;;;;6196928;28;20541;-73
2022/11/23 07:38:02;;;;;;;67.28;30.20;;;;;;;;;;6178511;28;20046;-73
2022/11/23 07:41:02;;;;;;;50.87;24.30;;;;;;;;;;6194840;28;20141;-73
2022/11/23 07:44:03;;;;;;;48.67;24.10;;;;;;;;;;6197196;28;20019;-74
2022/11/23 07:47:03;;;;;;;53.17;25.17;;;;;;;;;;6196402;28;20053;-74
2022/11/23 07:50:08;;;;;;;48.10;23.13;;;;;;;;;;6197941;28;20061;-73
2022/11/23 07:53:08;;;;;;;51.10;22.75;;;;;;;;;;6198255;28;20538;-73
2022/11/23 07:56:09;;;;;;;45.07;24.03;;;;;;;;;;6194597;28;20020;-74
2022/11/23 07:59:09;;;;;;;48.44;22.78;;;;;;;;;;6193963;28;20010;-73
2022/11/23 08:02:12;;;;;;;52.13;24.90;;;;;;;;;;6195860;28;20093;-73
2022/11/23 08:05:12;;;;;;;44.60;23.67;;;;;;;;;;6196417;28;20530;-73
2022/11/23 08:08:12;;;;;;;47.17;23.53;;;;;;;;;;6197029;28;20061;-73
2022/11/23 08:11:19;;;;;;;47.23;25.97;;;;;;;;;;6179899;28;20126;-73
2022/11/23 08:14:19;;;;;;;47.67;24.80;;;;;;;;;;6198294;28;20022;-73
2022/11/23 08:17:19;;;;;;;51.23;26.23;;;;;;;;;;6194112;28;20414;-73
2022/11/23 08:20:20;;;;;;;47.57;24.17;;;;;;;;;;6196767;28;20049;-74
2022/11/23 08:23:20;;;;;;;42.00;20.53;;;;;;;;;;6195745;28;20546;-73
2022/11/23 08:26:20;;;;;;;49.58;25.30;;;;;;;;;;6197715;28;20014;-73
2022/11/23 08:29:21;;;;;;;46.87;25.43;;;;;;;;;;6196587;28;20281;-73
2022/11/23 08:32:21;;;;;;;47.67;26.23;;;;;;;;;;6196425;28;20480;-74
2022/11/23 08:35:21;;;;;;;42.47;24.10;;;;;;;;;;6179522;28;20392;-73
2022/11/23 08:38:21;;;;;;;43.33;20.77;;;;;;;;;;6196793;28;20486;-74
2022/11/23 08:41:22;;;;;;;40.67;18.70;;;;;;;;;;6177602;28;20121;-74
2022/11/23 08:44:22;;;;;;;42.87;21.33;;;;;;;;;;6195168;28;20029;-75
2022/11/23 08:47:22;;;;;;;39.08;20.50;;;;;;;;;;6193932;28;20598;-74
2022/11/23 08:50:22;;;;;;;47.50;24.58;;;;;;;;;;6194717;28;20049;-73
2022/11/23 08:53:22;;;;;;;42.50;22.50;;;;;;;;;;6195522;28;20018;-73
2022/11/23 08:56:23;;;;;;;44.72;23.92;;;;;;;;;;6176738;28;20022;-73
2022/11/23 08:59:23;;;;;;;38.70;20.60;;;;;;;;;;6179089;28;20475;-74
2022/11/23 09:02:23;;;;;;;45.74;21.80;;;;;;;;;;6196815;28;20402;-73
2022/11/23 09:05:23;;;;;;;38.10;21.33;;;;;;;;;;6196623;28;20018;-73
2022/11/23 09:08:24;;;;;;;37.37;20.60;;;;;;;;;;6195215;28;20077;-74
2022/11/23 09:11:25;;;;;;;38.03;19.67;;;;;;;;;;6196450;28;20025;-74
2022/11/23 09:14:26;;;;;;;36.40;19.00;;;;;;;;;;6196882;28;20090;-74
2022/11/23 09:17:27;;;;;;;38.67;19.27;;;;;;;;;;6178810;28;20359;-75
2022/11/23 09:20:27;;;;;;;31.23;17.43;;;;;;;;;;6195922;28;20466;-75
2022/11/23 09:23:27;;;;;;;31.43;16.53;;;;;;;;;;6193038;28;20040;-74
2022/11/23 09:26:29;;;;;;;34.38;16.42;;;;;;;;;;6194880;28;20041;-74
2022/11/23 09:29:29;;;;;;;29.58;16.60;;;;;;;;;;6196342;28;20106;-74
2022/11/23 09:32:31;;;;;;;32.38;15.52;;;;;;;;;;6178649;28;20393;-74
2022/11/23 09:35:31;;;;;;;30.52;17.55;;;;;;;;;;6195965;28;20014;-73
2022/11/23 09:38:31;;;;;;;37.53;16.30;;;;;;;;;;6195152;28;20022;-74
2022/11/23 09:41:49;;;;;;;32.38;17.25;;;;;;;;;;6196934;28;20501;-74
2022/11/23 09:44:51;;;;;;;27.90;15.85;;;;;;;;;;6194890;28;20133;-74
2022/11/23 09:48:09;;;;;;;26.83;13.88;;;;;;;;;;6177447;28;20023;-74
2022/11/23 09:51:17;;;;;;;32.42;15.80;;;;;;;;;;6193707;28;20045;-75
2022/11/23 09:54:29;;;;;;;28.02;15.23;;;;;;;;;;6178462;28;20026;-74
2022/11/23 09:57:29;;;;;;;;;;;;;;;;;;6196638;28;20525;-74
2022/11/23 10:00:35;;;;;;;26.10;12.93;;;;;;;;;;6196156;28;19906;-74
2022/11/23 10:03:37;;;;;;;29.55;15.38;;;;;;;;;;6195016;28;20034;-74
2022/11/23 10:06:39;;;;;;;28.08;13.68;;;;;;;;;;6193868;28;20046;-74
2022/11/23 10:09:48;;;;;;;29.90;14.40;;;;;;;;;;6194483;28;20050;-74
2022/11/23 10:13:12;;;;;;;28.48;14.52;;;;;;;;;;6193568;28;20070;-74
2022/11/23 10:16:12;;;;;;;30.15;14.30;;;;;;;;;;6178427;28;20525;-75
2022/11/23 10:19:20;;;;;;;29.10;16.13;;;;;;;;;;6196499;28;20459;-74
2022/11/23 10:22:32;;;;;;;30.33;16.27;;;;;;;;;;6197198;28;20021;-74
2022/11/23 10:25:38;;;;;;;25.55;14.50;;;;;;;;;;6198753;28;20754;-73
2022/11/23 10:28:38;;;;;;;26.08;16.10;;;;;;;;;;6196815;28;20022;-73
2022/11/23 10:31:42;;;;;;;27.30;14.63;;;;;;;;;;6198667;28;20383;-74
2022/11/23 10:34:49;;;;;;;27.70;14.23;;;;;;;;;;6196578;28;20017;-74
2022/11/23 10:37:49;;;;;;;29.13;14.23;;;;;;;;;;6199908;28;20018;-74
2022/11/23 10:40:55;;;;;;;29.70;14.73;;;;;;;;;;6181110;28;20461;-74
2022/11/23 10:44:11;;;;;;;32.28;17.45;;;;;;;;;;6199215;28;20034;-74
2022/11/23 10:47:31;;;;;;;31.27;16.73;;;;;;;;;;6193816;28;20018;-74
2022/11/23 10:50:36;;;;;;;26.08;14.27;;;;;;;;;;6200357;28;20433;-74
2022/11/23 10:53:36;;;;;;;23.20;13.65;;;;;;;;;;6199172;28;20015;-73
2022/11/23 10:56:45;;;;;;;22.97;13.83;;;;;;;;;;6198551;28;20066;-74
2022/11/23 10:59:55;;;;;;;25.10;13.30;;;;;;;;;;6178720;28;20096;-74
2022/11/23 11:02:56;;;;;;;24.83;13.05;;;;;;;;;;6182084;28;20072;-74
2022/11/23 11:05:56;;;;;;;29.03;15.37;;;;;;;;;;6195550;28;20387;-74
2022/11/23 11:08:58;;;;;;;23.25;13.48;;;;;;;;;;6195750;28;20375;-74
2022/11/23 11:11:58;;;;;;;22.90;12.10;;;;;;;;;;6196848;28;20085;-74
2022/11/23 11:15:04;;;;;;;27.98;13.68;;;;;;;;;;6192117;28;20025;-74
2022/11/23 11:18:15;;;;;;;26.60;14.50;;;;;;;;;;6175721;28;20061;-75
2022/11/23 11:21:23;;;;;;;30.25;15.85;;;;;;;;;;6195495;28;20019;-73
2022/11/23 11:24:26;;;;;;;26.13;14.32;;;;;;;;;;6192744;28;20534;-73
2022/11/23 11:27:28;;;;;;;25.88;15.60;;;;;;;;;;6195367;28;20498;-73
2022/11/23 11:30:36;;;;;;;28.83;15.15;;;;;;;;;;6186536;28;20031;-75
2022/11/23 11:33:43;;;;;;;27.85;14.15;;;;;;;;;;6190555;28;20050;-74
2022/11/23 11:36:51;;;;;;;26.48;14.68;;;;;;;;;;6191286;28;20022;-74
2022/11/23 11:39:56;;;;;;;24.75;14.73;;;;;;;;;;6193842;28;20200;-74
2022/11/23 11:42:56;;;;;;;31.35;15.10;;;;;;;;;;6197677;28;20050;-74
2022/11/23 11:45:57;;;;;;;25.56;13.60;;;;;;;;;;6194916;28;20022;-74
2022/11/23 11:49:30;;;;;;;29.53;16.17;;;;;;;;;;6195020;28;20110;-74
2022/11/23 11:52:36;;;;;;;29.35;16.42;;;;;;;;;;6159753;28;20635;-73
2022/11/23 11:55:49;;;;;;;27.95;15.05;;;;;;;;;;6192839;28;20503;-74
2022/11/23 11:58:54;;;;;;;24.25;14.30;;;;;;;;;;6193881;28;20034;-74
2022/11/23 12:01:54;;;;;;;29.75;16.85;;;;;;;;;;6193144;28;20025;-74
2022/11/23 12:05:17;;;;;;;31.75;17.05;;;;;;;;;;6193024;28;20026;-74
2022/11/23 12:08:17;;;;;;;28.58;14.98;;;;;;;;;;6193123;28;20092;-74
2022/11/23 12:11:18;;;;;;;27.92;16.02;;;;;;;;;;6191231;28;20026;-74
2022/11/23 12:14:19;;;;;;;30.65;15.73;;;;;;;;;;6190998;28;20017;-74
2022/11/23 12:17:32;;;;;;;33.53;16.03;;;;;;;;;;6191620;28;20023;-74
2022/11/23 12:20:52;;;;;;;31.25;16.60;;;;;;;;;;6191918;28;20026;-74
2022/11/23 12:24:01;;;;;;;35.45;16.23;;;;;;;;;;6195194;28;20041;-74
2022/11/23 12:27:22;;;;;;;37.42;17.25;;;;;;;;;;6196545;28;20488;-74
2022/11/23 12:30:24;;;;;;;30.45;17.42;;;;;;;;;;6190367;28;20022;-74
2022/11/23 12:33:34;;;;;;;31.33;16.58;;;;;;;;;;6194230;28;20565;-74
2022/11/23 12:36:40;;;;;;;36.22;19.40;;;;;;;;;;6193859;28;20026;-74
2022/11/23 12:39:53;;;;;;;29.75;15.90;;;;;;;;;;6195996;28;20336;-74
2022/11/23 12:42:59;;;;;;;38.45;19.65;;;;;;;;;;6192238;28;20018;-74
2022/11/23 12:46:07;;;;;;;36.38;16.85;;;;;;;;;;6196570;28;20022;-74
2022/11/23 12:49:21;;;;;;;39.50;18.42;;;;;;;;;;6172861;28;20026;-74
2022/11/23 12:52:34;;;;;;;33.42;17.00;;;;;;;;;;6196359;28;20027;-74
2022/11/23 12:55:47;;;;;;;36.97;17.73;;;;;;;;;;6195490;28;20073;-74
2022/11/23 12:58:48;;;;;;;38.55;17.90;;;;;;;;;;6194980;28;20037;-74
2022/11/23 13:01:50;;;;;;;44.77;18.27;;;;;;;;;;6195698;28;20030;-75
2022/11/23 13:05:14;;;;;;;42.00;18.77;;;;;;;;;;6195271;28;20433;-74
2022/11/23 13:08:28;;;;;;;33.60;17.45;;;;;;;;;;6177899;28;20062;-74
2022/11/23 13:11:34;;;;;;;40.40;17.58;;;;;;;;;;6192364;28;20072;-74
2022/11/23 13:14:34;;;;;;;34.88;17.38;;;;;;;;;;6193583;28;20532;-74
2022/11/23 13:17:42;;;;;;;33.92;17.00;;;;;;;;;;6195347;28;20459;-74
2022/11/23 13:20:58;;;;;;;29.67;16.15;;;;;;;;;;6177231;28;20109;-74
2022/11/23 13:23:58;;;;;;;31.65;14.93;;;;;;;;;;6195928;28;20026;-74
2022/11/23 13:27:14;;;;;;;33.07;15.67;;;;;;;;;;6193572;28;20038;-74
2022/11/23 13:30:23;;;;;;;32.35;14.55;;;;;;;;;;6185802;28;20054;-74
2022/11/23 13:33:24;;;;;;;32.30;15.88;;;;;;;;;;6192957;28;20437;-74
2022/11/23 13:36:27;;;;;;;32.75;15.43;;;;;;;;;;6192485;28;20068;-74
2022/11/23 13:39:43;;;;;;;31.27;15.55;;;;;;;;;;6190422;28;20391;-74
2022/11/23 13:42:46;;;;;;;31.20;15.38;;;;;;;;;;6192272;28;20022;-74
2022/11/23 13:46:07;;;;;;;33.72;17.13;;;;;;;;;;6193757;28;20439;-74
2022/11/23 13:49:27;;;;;;;33.67;17.42;;;;;;;;;;6162810;28;20108;-75
2022/11/23 13:52:27;;;;;;;31.20;18.08;;;;;;;;;;6193264;28;20026;-75
2022/11/23 13:55:35;;;;;;;34.87;18.50;;;;;;;;;;6190332;28;20023;-74
2022/11/23 13:58:36;;;;;;;35.83;19.00;;;;;;;;;;6176781;28;20482;-74
2022/11/23 14:01:55;;;;;;;30.13;17.10;;;;;;;;;;6194711;28;20450;-75
2022/11/23 14:05:14;;;;;;;38.53;18.30;;;;;;;;;;6194033;28;20025;-75
2022/11/23 14:08:16;;;;;;;33.28;18.10;;;;;;;;;;6187532;28;20519;-74
2022/11/23 14:11:19;;;;;;;30.92;17.48;;;;;;;;;;6193203;28;20034;-74
2022/11/23 14:14:21;;;;;;;35.03;18.20;;;;;;;;;;6193438;28;20014;-74
2022/11/23 14:17:21;;;;;;;;;;;;;;;;;;6176321;28;20358;-75
2022/11/23 14:20:24;;;;;;;36.58;20.15;;;;;;;;;;6191820;28;20250;-75
2022/11/23 14:23:35;;;;;;;34.80;18.48;;;;;;;;;;6194048;28;20054;-74
2022/11/23 14:26:48;;;;;;;37.07;17.70;;;;;;;;;;6177235;28;20509;-74
2022/11/23 14:30:00;;;;;;;34.92;17.90;;;;;;;;;;6194017;28;20402;-75
2022/11/23 14:33:03;;;;;;;36.70;18.35;;;;;;;;;;6194438;28;20053;-75
2022/11/23 14:36:21;;;;;;;32.78;18.05;;;;;;;;;;6194042;28;20529;-74
2022/11/23 14:39:40;;;;;;;36.30;18.65;;;;;;;;;;6193659;28;20384;-76
2022/11/23 14:42:44;;;;;;;36.03;19.48;;;;;;;;;;6191526;28;20049;-75
2022/11/23 14:45:45;;;;;;;42.40;20.52;;;;;;;;;;6192027;28;20049;-74
2022/11/23 14:48:46;;;;;;;36.00;19.07;;;;;;;;;;6194138;28;20034;-74
2022/11/23 14:51:46;;;;;;;44.08;20.13;;;;;;;;;;6193699;28;20037;-75
2022/11/23 14:54:51;;;;;;;36.33;18.93;;;;;;;;;;6193367;28;20026;-75
2022/11/23 14:57:52;;;;;;;40.13;19.27;;;;;;;;;;6191875;28;20426;-75
2022/11/23 15:00:57;;;;;;;43.63;20.65;;;;;;;;;;6193682;28;20030;-75
2022/11/23 15:03:58;;;;;;;42.60;21.92;;;;;;;;;;6176323;28;20141;-75
2022/11/23 15:07:19;;;;;;;33.63;19.70;;;;;;;;;;6173115;28;20046;-75
2022/11/23 15:10:38;;;;;;;36.03;18.40;;;;;;;;;;6176727;28;20042;-75
2022/11/23 15:13:44;;;;;;;45.83;22.02;;;;;;;;;;6198249;28;20509;-75
2022/11/23 15:16:45;;;;;;;38.55;21.05;;;;;;;;;;6197195;28;20022;-76
2022/11/23 15:19:54;;;;;;;44.93;21.07;;;;;;;;;;6197488;28;20376;-75
2022/11/23 15:22:54;;;;;;;37.78;20.10;;;;;;;;;;6197938;28;20026;-75
2022/11/23 15:26:03;;;;;;;32.90;18.10;;;;;;;;;;6180589;28;20061;-75
2022/11/23 15:29:03;;;;;;;39.05;17.00;;;;;;;;;;6197526;28;20157;-75
2022/11/23 15:32:19;;;;;;;34.57;16.27;;;;;;;;;;6199294;28;20042;-75
2022/11/23 15:35:20;;;;;;;32.40;17.25;;;;;;;;;;6194316;28;20080;-75
2022/11/23 15:38:20;;;;;;;32.23;17.73;;;;;;;;;;6198545;28;20375;-75
2022/11/23 15:41:21;;;;;;;36.80;18.77;;;;;;;;;;6196393;28;20030;-75
2022/11/23 15:44:26;;;;;;;30.60;17.02;;;;;;;;;;6197874;28;20394;-75
2022/11/23 15:47:27;;;;;;;37.92;18.08;;;;;;;;;;6179686;28;20442;-75
2022/11/23 15:50:27;;;;;;;32.58;18.13;;;;;;;;;;6197897;28;20014;-76
2022/11/23 15:53:30;;;;;;;26.07;16.03;;;;;;;;;;6181894;28;20019;-75
2022/11/23 15:56:31;;;;;;;34.55;18.35;;;;;;;;;;6198990;28;20022;-75
2022/11/23 15:59:55;;;;;;;29.05;16.65;;;;;;;;;;6198127;28;20029;-75
2022/11/23 16:03:15;;;;;;;31.10;16.45;;;;;;;;;;6195504;28;20482;-75
2022/11/23 16:06:17;;;;;;;30.88;17.63;;;;;;;;;;6194858;28;20046;-75
2022/11/23 16:09:35;;;;;;;35.05;18.38;;;;;;;;;;6196257;28;20014;-75
2022/11/23 16:12:44;;;;;;;30.17;16.65;;;;;;;;;;6196886;28;20023;-75
2022/11/23 16:15:45;;;;;;;37.40;19.92;;;;;;;;;;6195936;28;20145;-75
2022/11/23 16:18:46;;;;;;;37.77;18.67;;;;;;;;;;6194628;28;20022;-75
2022/11/23 16:21:46;;;;;;;36.50;18.15;;;;;;;;;;6195571;28;20105;-75
2022/11/23 16:24:48;;;;;;;33.90;17.80;;;;;;;;;;6197179;28;20030;-75
2022/11/23 16:27:57;;;;;;;39.05;19.42;;;;;;;;;;6193770;28;20024;-76
2022/11/23 16:30:58;;;;;;;42.40;21.25;;;;;;;;;;6193746;28;20494;-75
2022/11/23 16:33:58;;;;;;;42.17;21.40;;;;;;;;;;6192310;28;20049;-75
2022/11/23 16:37:02;;;;;;;41.90;21.23;;;;;;;;;;6194865;28;20455;-75
2022/11/23 16:40:02;;;;;;;35.80;17.73;;;;;;;;;;6174258;28;20026;-75
2022/11/23 16:43:03;;;;;;;36.47;19.27;;;;;;;;;;6179157;28;20026;-75
2022/11/23 16:46:03;;;;;;;37.40;19.03;;;;;;;;;;6194983;28;20033;-75
2022/11/23 16:49:03;;;;;;;34.57;19.97;;;;;;;;;;6193875;28;20061;-75
2022/11/23 16:52:03;;;;;;;34.47;17.93;;;;;;;;;;6170383;28;20121;-75
2022/11/23 16:55:04;;;;;;;30.40;16.60;;;;;;;;;;6194954;28;20015;-75
2022/11/23 16:58:04;;;;;;;35.73;18.33;;;;;;;;;;6195559;28;20022;-75
2022/11/23 17:01:05;;;;;;;33.97;17.57;;;;;;;;;;6194451;28;20080;-75
2022/11/23 17:04:05;;;;;;;35.60;17.80;;;;;;;;;;6175679;28;20057;-75
2022/11/23 17:07:05;;;;;;;35.63;19.95;;;;;;;;;;6193175;28;20512;-75
2022/11/23 17:10:05;;;;;;;34.67;16.97;;;;;;;;;;6192987;28;20030;-75
2022/11/23 17:13:09;;;;;;;38.13;18.30;;;;;;;;;;6174506;28;20026;-75
2022/11/23 17:16:17;;;;;;;37.53;17.90;;;;;;;;;;6193287;28;20092;-76
2022/11/23 17:19:19;;;;;;;34.35;17.45;;;;;;;;;;6192661;28;20026;-75
2022/11/23 17:22:19;;;;;;;34.28;18.30;;;;;;;;;;6176456;28;20026;-75
2022/11/23 17:25:19;;;;;;;37.13;18.83;;;;;;;;;;6194025;28;20022;-75
2022/11/23 17:28:23;;;;;;;34.38;16.90;;;;;;;;;;6175454;28;20090;-75
2022/11/23 17:31:23;;;;;;;31.83;17.40;;;;;;;;;;6193521;28;20026;-76
2022/11/23 17:34:24;;;;;;;32.10;16.67;;;;;;;;;;6192933;28;20029;-75
2022/11/23 17:37:24;;;;;;;38.63;20.10;;;;;;;;;;6201837;28;20025;-75
2022/11/23 17:40:26;;;;;;;30.90;16.83;;;;;;;;;;6177741;28;20014;-75
2022/11/23 17:43:26;;;;;;;35.38;16.75;;;;;;;;;;6194284;28;20049;-75
2022/11/23 17:46:29;;;;;;;36.63;19.02;;;;;;;;;;6193355;28;20480;-75
2022/11/23 17:49:30;;;;;;;36.40;17.88;;;;;;;;;;6176253;28;20021;-75
2022/11/23 17:52:30;;;;;;;37.73;17.93;;;;;;;;;;6192896;28;20019;-75